createdAt,value
2018-05-29T00:00:08.070Z,0.00
2018-05-29T00:01:07.985Z,0.00
2018-05-29T00:02:07.906Z,0.00
2018-05-29T00:03:07.810Z,0.00
2018-05-29T00:04:07.755Z,0.00
2018-05-29T00:05:07.631Z,0.00
2018-05-29T00:06:07.551Z,0.00
2018-05-29T00:07:07.459Z,0.00
2018-05-29T00:08:07.371Z,0.00
2018-05-29T00:09:07.326Z,0.00
2018-05-29T00:10:07.198Z,0.00
2018-05-29T00:11:07.217Z,0.00
2018-05-29T00:12:07.019Z,0.00
2018-05-29T00:13:06.933Z,0.00
2018-05-29T00:14:06.854Z,0.00
2018-05-29T00:15:06.789Z,0.00
2018-05-29T00:16:06.669Z,0.00
2018-05-29T00:17:06.580Z,0.00
2018-05-29T00:18:06.589Z,0.00
2018-05-29T00:19:06.406Z,0.00
2018-05-29T00:20:06.352Z,0.00
2018-05-29T00:21:06.228Z,0.00
2018-05-29T00:22:06.144Z,0.00
2018-05-29T00:23:06.057Z,0.00
2018-05-29T00:24:05.969Z,0.00
2018-05-29T00:25:06.016Z,0.00
2018-05-29T00:26:05.793Z,0.00
2018-05-29T00:27:05.708Z,0.00
2018-05-29T00:28:05.619Z,0.00
2018-05-29T00:29:05.532Z,0.00
2018-05-29T00:30:05.445Z,0.00
2018-05-29T00:31:05.386Z,0.00
2018-05-29T00:32:05.360Z,0.00
2018-05-29T00:33:05.180Z,0.00
2018-05-29T00:34:05.092Z,0.00
2018-05-29T00:35:05.011Z,0.00
2018-05-29T00:36:04.948Z,0.00
2018-05-29T00:37:04.829Z,0.00
2018-05-29T00:38:04.741Z,0.00
2018-05-29T00:39:04.748Z,0.00
2018-05-29T00:40:04.569Z,0.00
2018-05-29T00:41:04.511Z,0.00
2018-05-29T00:42:04.393Z,0.00
2018-05-29T00:43:04.305Z,0.00
2018-05-29T00:44:04.228Z,0.00
2018-05-29T00:45:04.127Z,0.00
2018-05-29T00:46:04.170Z,0.00
2018-05-29T00:47:03.956Z,0.00
2018-05-29T00:48:03.864Z,0.00
2018-05-29T00:49:03.779Z,0.00
2018-05-29T00:50:03.689Z,0.00
2018-05-29T00:51:03.606Z,0.00
2018-05-29T00:52:03.544Z,0.00
2018-05-29T00:53:03.520Z,0.00
2018-05-29T00:54:03.341Z,0.00
2018-05-29T00:55:03.256Z,0.00
2018-05-29T00:56:03.169Z,0.00
2018-05-29T00:57:03.111Z,0.00
2018-05-29T00:58:02.988Z,0.00
2018-05-29T00:59:02.902Z,0.00
2018-05-29T01:00:02.910Z,0.00
2018-05-29T01:01:02.726Z,0.00
2018-05-29T01:02:02.670Z,0.00
2018-05-29T01:03:02.552Z,0.00
2018-05-29T01:04:02.469Z,0.00
2018-05-29T01:05:02.394Z,0.00
2018-05-29T01:06:02.287Z,0.00
2018-05-29T01:07:02.336Z,0.00
2018-05-29T01:08:02.116Z,0.00
2018-05-29T01:09:02.027Z,0.00
2018-05-29T01:10:01.942Z,0.00
2018-05-29T01:11:01.852Z,0.00
2018-05-29T01:12:01.765Z,0.00
2018-05-29T01:13:01.709Z,0.00
2018-05-29T01:14:01.685Z,0.00
2018-05-29T01:15:01.501Z,0.00
2018-05-29T01:16:01.413Z,0.00
2018-05-29T01:17:01.326Z,0.00
2018-05-29T01:18:01.271Z,0.00
2018-05-29T01:19:01.152Z,0.00
2018-05-29T01:20:01.061Z,0.00
2018-05-29T01:21:01.067Z,0.00
2018-05-29T01:22:00.889Z,0.00
2018-05-29T01:23:00.804Z,0.00
2018-05-29T01:24:00.748Z,0.00
2018-05-29T01:25:00.626Z,0.00
2018-05-29T01:26:00.538Z,0.00
2018-05-29T01:27:00.452Z,0.00
2018-05-29T01:28:00.365Z,0.00
2018-05-29T01:29:00.304Z,0.00
2018-05-29T01:30:00.189Z,0.00
2018-05-29T01:31:00.099Z,0.00
2018-05-29T01:32:00.016Z,0.00
2018-05-29T01:32:59.922Z,0.00
2018-05-29T01:33:59.865Z,0.00
2018-05-29T01:34:59.746Z,0.00
2018-05-29T01:35:59.661Z,0.00
2018-05-29T01:36:59.573Z,0.00
2018-05-29T01:37:59.483Z,0.00
2018-05-29T01:38:59.427Z,0.00
2018-05-29T01:39:59.311Z,0.00
2018-05-29T01:40:59.223Z,0.00
2018-05-29T01:41:59.137Z,0.00
2018-05-29T01:42:59.046Z,0.00
2018-05-29T01:43:59.005Z,0.00
2018-05-29T01:44:58.870Z,0.00
2018-05-29T01:45:58.783Z,0.00
2018-05-29T01:46:58.697Z,0.00
2018-05-29T01:47:58.608Z,0.00
2018-05-29T01:48:58.522Z,0.00
2018-05-29T01:49:58.492Z,0.00
2018-05-29T01:50:58.346Z,0.00
2018-05-29T01:51:58.255Z,0.00
2018-05-29T01:52:58.170Z,0.00
2018-05-29T01:53:58.081Z,0.00
2018-05-29T01:54:58.023Z,0.00
2018-05-29T01:55:57.906Z,0.00
2018-05-29T01:56:57.818Z,0.00
2018-05-29T01:57:57.728Z,0.00
2018-05-29T01:58:57.641Z,0.00
2018-05-29T01:59:57.587Z,0.00
2018-05-29T02:00:57.465Z,0.00
2018-05-29T02:01:57.378Z,0.00
2018-05-29T02:02:57.291Z,0.00
2018-05-29T02:03:57.203Z,0.00
2018-05-29T02:04:57.118Z,0.00
2018-05-29T02:05:57.057Z,0.00
2018-05-29T02:06:56.938Z,0.00
2018-05-29T02:07:56.855Z,0.00
2018-05-29T02:08:56.768Z,0.00
2018-05-29T02:09:56.678Z,0.00
2018-05-29T02:10:56.617Z,0.00
2018-05-29T02:11:56.499Z,0.00
2018-05-29T02:12:56.411Z,0.00
2018-05-29T02:13:56.321Z,0.00
2018-05-29T02:14:56.236Z,0.00
2018-05-29T02:15:56.178Z,0.00
2018-05-29T02:16:56.061Z,0.00
2018-05-29T02:17:55.973Z,0.00
2018-05-29T02:18:55.885Z,0.00
2018-05-29T02:19:55.797Z,0.00
2018-05-29T02:20:55.737Z,0.00
2018-05-29T02:21:55.630Z,0.00
2018-05-29T02:22:55.531Z,0.00
2018-05-29T02:23:55.442Z,0.00
2018-05-29T02:24:55.355Z,0.00
2018-05-29T02:25:55.298Z,0.00
2018-05-29T02:26:55.180Z,0.00
2018-05-29T02:27:55.092Z,0.00
2018-05-29T02:28:55.006Z,0.00
2018-05-29T02:29:55.012Z,0.00
2018-05-29T02:30:54.868Z,0.00
2018-05-29T02:31:54.743Z,0.00
2018-05-29T02:32:54.651Z,0.00
2018-05-29T02:33:54.565Z,0.00
2018-05-29T02:34:54.478Z,0.00
2018-05-29T02:35:54.392Z,0.00
2018-05-29T02:36:54.335Z,0.00
2018-05-29T02:37:54.213Z,0.00
2018-05-29T02:38:54.129Z,0.00
2018-05-29T02:39:54.039Z,0.00
2018-05-29T02:40:53.953Z,0.00
2018-05-29T02:41:53.897Z,0.00
2018-05-29T02:42:53.783Z,0.00
2018-05-29T02:43:53.688Z,0.00
2018-05-29T02:44:53.596Z,0.00
2018-05-29T02:45:53.509Z,0.00
2018-05-29T02:46:53.453Z,0.00
2018-05-29T02:47:53.342Z,0.00
2018-05-29T02:48:53.246Z,0.00
2018-05-29T02:49:53.163Z,0.00
2018-05-29T02:50:53.071Z,0.00
2018-05-29T02:51:52.987Z,0.00
2018-05-29T02:52:52.925Z,0.00
2018-05-29T02:53:52.825Z,0.00
2018-05-29T02:54:52.718Z,5.63
2018-05-29T02:55:52.629Z,5.63
2018-05-29T02:56:52.542Z,5.63
2018-05-29T02:57:52.490Z,5.63
2018-05-29T02:58:52.370Z,5.63
2018-05-29T02:59:52.275Z,5.63
2018-05-29T03:00:52.189Z,5.63
2018-05-29T03:01:52.103Z,11.25
2018-05-29T03:02:52.047Z,11.25
2018-05-29T03:03:51.928Z,11.25
2018-05-29T03:04:51.841Z,11.25
2018-05-29T03:05:51.752Z,11.25
2018-05-29T03:06:51.710Z,16.88
2018-05-29T03:07:51.610Z,16.88
2018-05-29T03:08:51.484Z,16.88
2018-05-29T03:09:51.397Z,16.88
2018-05-29T03:10:51.310Z,22.50
2018-05-29T03:11:51.222Z,22.50
2018-05-29T03:12:51.134Z,22.50
2018-05-29T03:13:51.077Z,28.13
2018-05-29T03:14:50.958Z,28.13
2018-05-29T03:15:50.870Z,28.13
2018-05-29T03:16:50.778Z,33.75
2018-05-29T03:17:50.693Z,33.75
2018-05-29T03:18:50.634Z,33.75
2018-05-29T03:19:50.516Z,39.38
2018-05-29T03:20:50.458Z,39.38
2018-05-29T03:21:50.343Z,39.38
2018-05-29T03:22:50.252Z,45.00
2018-05-29T03:23:50.209Z,45.00
2018-05-29T03:24:50.074Z,50.63
2018-05-29T03:25:50.000Z,50.63
2018-05-29T03:26:49.912Z,56.25
2018-05-29T03:27:50.114Z,56.25
2018-05-29T03:28:49.724Z,61.88
2018-05-29T03:29:49.667Z,61.88
2018-05-29T03:30:49.547Z,67.50
2018-05-29T03:31:49.458Z,67.50
2018-05-29T03:32:49.368Z,73.13
2018-05-29T03:33:49.374Z,73.13
2018-05-29T03:34:49.226Z,78.75
2018-05-29T03:35:49.107Z,84.38
2018-05-29T03:36:49.016Z,84.38
2018-05-29T03:37:48.929Z,90.00
2018-05-29T03:38:48.846Z,95.63
2018-05-29T03:39:48.784Z,95.63
2018-05-29T03:40:48.757Z,101.25
2018-05-29T03:41:48.576Z,106.88
2018-05-29T03:42:48.489Z,112.50
2018-05-29T03:43:48.401Z,118.13
2018-05-29T03:44:48.354Z,118.13
2018-05-29T03:45:48.224Z,118.13
2018-05-29T03:46:48.136Z,123.75
2018-05-29T03:47:48.162Z,129.38
2018-05-29T03:48:47.958Z,135.00
2018-05-29T03:49:47.872Z,135.00
2018-05-29T03:50:47.811Z,140.63
2018-05-29T03:51:47.695Z,140.63
2018-05-29T03:52:47.607Z,146.25
2018-05-29T03:53:47.522Z,146.25
2018-05-29T03:54:47.523Z,146.25
2018-05-29T03:55:47.373Z,151.88
2018-05-29T03:56:47.253Z,151.88
2018-05-29T03:57:47.168Z,151.88
2018-05-29T03:58:47.077Z,157.50
2018-05-29T03:59:46.990Z,157.50
2018-05-29T04:00:46.932Z,163.13
2018-05-29T04:01:46.909Z,163.13
2018-05-29T04:02:46.727Z,163.13
2018-05-29T04:03:46.638Z,157.50
2018-05-29T04:04:46.550Z,157.50
2018-05-29T04:05:46.462Z,163.13
2018-05-29T04:06:46.408Z,163.13
2018-05-29T04:07:46.406Z,163.13
2018-05-29T04:08:46.197Z,168.75
2018-05-29T04:09:46.111Z,168.75
2018-05-29T04:10:46.024Z,174.38
2018-05-29T04:11:45.962Z,180.00
2018-05-29T04:12:45.842Z,180.00
2018-05-29T04:13:45.757Z,180.00
2018-05-29T04:14:45.670Z,180.00
2018-05-29T04:15:45.690Z,180.00
2018-05-29T04:16:45.525Z,180.00
2018-05-29T04:17:45.408Z,191.25
2018-05-29T04:18:45.315Z,191.25
2018-05-29T04:19:45.245Z,196.88
2018-05-29T04:20:45.140Z,208.13
2018-05-29T04:21:45.100Z,213.75
2018-05-29T04:22:44.968Z,219.38
2018-05-29T04:23:44.877Z,225.00
2018-05-29T04:24:44.788Z,230.63
2018-05-29T04:25:44.698Z,236.25
2018-05-29T04:26:44.612Z,236.25
2018-05-29T04:27:44.556Z,241.88
2018-05-29T04:28:44.437Z,241.88
2018-05-29T04:29:44.348Z,247.50
2018-05-29T04:30:44.261Z,247.50
2018-05-29T04:31:44.175Z,253.13
2018-05-29T04:32:44.117Z,253.13
2018-05-29T04:33:43.998Z,258.75
2018-05-29T04:34:43.909Z,258.75
2018-05-29T04:35:43.821Z,264.38
2018-05-29T04:36:43.731Z,275.63
2018-05-29T04:37:43.674Z,303.75
2018-05-29T04:38:43.555Z,281.25
2018-05-29T04:39:43.472Z,275.63
2018-05-29T04:40:43.382Z,281.25
2018-05-29T04:41:43.294Z,286.88
2018-05-29T04:42:43.237Z,286.88
2018-05-29T04:43:43.123Z,292.50
2018-05-29T04:44:43.033Z,292.50
2018-05-29T04:45:42.944Z,331.88
2018-05-29T04:46:42.854Z,315.00
2018-05-29T04:47:42.768Z,393.75
2018-05-29T04:48:42.707Z,371.25
2018-05-29T04:49:42.641Z,540.00
2018-05-29T04:50:42.504Z,545.63
2018-05-29T04:51:42.413Z,495.00
2018-05-29T04:52:42.329Z,421.88
2018-05-29T04:53:42.271Z,399.38
2018-05-29T04:54:42.151Z,410.63
2018-05-29T04:55:42.065Z,393.75
2018-05-29T04:56:41.976Z,500.63
2018-05-29T04:57:41.889Z,376.88
2018-05-29T04:58:41.836Z,365.63
2018-05-29T04:59:41.720Z,382.50
2018-05-29T05:00:41.627Z,388.13
2018-05-29T05:01:41.540Z,416.25
2018-05-29T05:02:41.463Z,466.88
2018-05-29T05:03:41.395Z,478.13
2018-05-29T05:04:41.276Z,421.88
2018-05-29T05:05:41.193Z,388.13
2018-05-29T05:06:41.103Z,382.50
2018-05-29T05:07:41.016Z,421.88
2018-05-29T05:08:40.960Z,410.63
2018-05-29T05:09:40.841Z,382.50
2018-05-29T05:10:40.755Z,382.50
2018-05-29T05:11:40.672Z,376.88
2018-05-29T05:12:40.581Z,382.50
2018-05-29T05:13:40.492Z,388.13
2018-05-29T05:14:40.438Z,388.13
2018-05-29T05:15:40.317Z,399.38
2018-05-29T05:16:40.232Z,416.25
2018-05-29T05:17:40.149Z,410.63
2018-05-29T05:18:40.056Z,421.88
2018-05-29T05:19:40.006Z,455.63
2018-05-29T05:20:39.882Z,495.00
2018-05-29T05:21:39.796Z,506.25
2018-05-29T05:22:39.709Z,472.50
2018-05-29T05:23:39.659Z,427.50
2018-05-29T05:24:39.568Z,416.25
2018-05-29T05:25:39.448Z,421.88
2018-05-29T05:26:39.360Z,466.88
2018-05-29T05:27:39.276Z,421.88
2018-05-29T05:28:39.185Z,427.50
2018-05-29T05:29:39.131Z,438.75
2018-05-29T05:30:39.017Z,450.00
2018-05-29T05:31:38.930Z,472.50
2018-05-29T05:32:38.839Z,466.88
2018-05-29T05:33:38.755Z,495.00
2018-05-29T05:34:38.702Z,461.25
2018-05-29T05:35:38.577Z,478.13
2018-05-29T05:36:38.489Z,450.00
2018-05-29T05:37:38.405Z,607.50
2018-05-29T05:38:38.410Z,534.38
2018-05-29T05:39:38.265Z,489.38
2018-05-29T05:40:38.144Z,478.13
2018-05-29T05:41:38.057Z,466.88
2018-05-29T05:42:37.969Z,551.25
2018-05-29T05:43:37.889Z,500.63
2018-05-29T05:44:37.826Z,500.63
2018-05-29T05:45:37.804Z,489.38
2018-05-29T05:46:37.622Z,472.50
2018-05-29T05:47:37.537Z,478.13
2018-05-29T05:48:37.452Z,472.50
2018-05-29T05:49:37.364Z,500.63
2018-05-29T05:50:37.308Z,478.13
2018-05-29T05:51:37.188Z,483.75
2018-05-29T05:52:37.240Z,489.38
2018-05-29T05:53:37.016Z,489.38
2018-05-29T05:54:36.934Z,483.75
2018-05-29T05:55:36.873Z,500.63
2018-05-29T05:56:36.755Z,523.13
2018-05-29T05:57:36.667Z,641.25
2018-05-29T05:58:36.584Z,489.38
2018-05-29T05:59:36.588Z,478.13
2018-05-29T06:00:36.445Z,495.00
2018-05-29T06:01:36.323Z,500.63
2018-05-29T06:02:36.236Z,573.75
2018-05-29T06:03:36.151Z,511.88
2018-05-29T06:04:36.066Z,511.88
2018-05-29T06:05:36.011Z,624.38
2018-05-29T06:06:35.982Z,551.25
2018-05-29T06:07:35.808Z,585.00
2018-05-29T06:08:35.716Z,585.00
2018-05-29T06:09:35.633Z,624.38
2018-05-29T06:10:35.578Z,556.88
2018-05-29T06:11:35.460Z,523.13
2018-05-29T06:12:35.372Z,511.88
2018-05-29T06:13:35.379Z,528.75
2018-05-29T06:14:35.198Z,511.88
2018-05-29T06:15:35.144Z,517.50
2018-05-29T06:16:35.027Z,523.13
2018-05-29T06:17:34.940Z,579.38
2018-05-29T06:18:34.863Z,680.63
2018-05-29T06:19:34.770Z,545.63
2018-05-29T06:20:34.809Z,556.88
2018-05-29T06:21:34.594Z,534.38
2018-05-29T06:22:34.514Z,534.38
2018-05-29T06:23:34.426Z,534.38
2018-05-29T06:24:34.336Z,545.63
2018-05-29T06:25:34.285Z,551.25
2018-05-29T06:26:34.166Z,545.63
2018-05-29T06:27:34.170Z,556.88
2018-05-29T06:28:33.994Z,568.13
2018-05-29T06:29:33.908Z,573.75
2018-05-29T06:30:33.860Z,596.25
2018-05-29T06:31:33.736Z,646.88
2018-05-29T06:32:33.649Z,652.50
2018-05-29T06:33:33.563Z,905.63
2018-05-29T06:34:33.573Z,1321.88
2018-05-29T06:35:33.424Z,1839.38
2018-05-29T06:36:33.304Z,1445.63
2018-05-29T06:37:33.221Z,1530.00
2018-05-29T06:38:33.136Z,2160.00
2018-05-29T06:39:33.049Z,1901.25
2018-05-29T06:40:33.010Z,2041.88
2018-05-29T06:41:32.879Z,2081.25
2018-05-29T06:42:32.791Z,2075.63
2018-05-29T06:43:32.706Z,2103.75
2018-05-29T06:44:32.622Z,2154.38
2018-05-29T06:45:32.538Z,2081.25
2018-05-29T06:46:32.483Z,2300.63
2018-05-29T06:47:32.370Z,2199.38
2018-05-29T06:48:32.283Z,2508.75
2018-05-29T06:49:32.200Z,2452.50
2018-05-29T06:50:32.118Z,2593.13
2018-05-29T06:51:32.064Z,2632.50
2018-05-29T06:52:32.001Z,2390.63
2018-05-29T06:53:31.867Z,2531.25
2018-05-29T06:54:31.783Z,2576.25
2018-05-29T06:55:31.699Z,2773.13
2018-05-29T06:56:31.643Z,2947.50
2018-05-29T06:57:31.530Z,2958.75
2018-05-29T06:58:31.448Z,2784.38
2018-05-29T06:59:31.366Z,2930.63
2018-05-29T07:00:31.280Z,2930.63
2018-05-29T07:01:31.227Z,3138.75
2018-05-29T07:02:31.124Z,3189.38
2018-05-29T07:03:31.031Z,2913.75
2018-05-29T07:04:30.951Z,2565.00
2018-05-29T07:05:30.868Z,3048.75
2018-05-29T07:06:30.816Z,3048.75
2018-05-29T07:07:30.704Z,2941.88
2018-05-29T07:08:30.619Z,3391.88
2018-05-29T07:09:30.538Z,3431.25
2018-05-29T07:10:30.456Z,3436.88
2018-05-29T07:11:30.405Z,2604.38
2018-05-29T07:12:30.293Z,2722.50
2018-05-29T07:13:30.208Z,2621.25
2018-05-29T07:14:30.158Z,3465.00
2018-05-29T07:15:30.046Z,2626.88
2018-05-29T07:16:29.995Z,3155.63
2018-05-29T07:17:29.885Z,3346.88
2018-05-29T07:18:29.809Z,3493.13
2018-05-29T07:19:29.725Z,3318.75
2018-05-29T07:20:29.641Z,3279.38
2018-05-29T07:21:29.587Z,3251.25
2018-05-29T07:22:29.477Z,3335.63
2018-05-29T07:23:29.404Z,3504.38
2018-05-29T07:24:29.314Z,3273.75
2018-05-29T07:25:29.230Z,3515.63
2018-05-29T07:26:29.185Z,3583.13
2018-05-29T07:27:29.069Z,3571.88
2018-05-29T07:28:28.992Z,3825.00
2018-05-29T07:29:28.905Z,3515.63
2018-05-29T07:30:28.825Z,3577.50
2018-05-29T07:31:28.775Z,3684.38
2018-05-29T07:32:28.660Z,3656.25
2018-05-29T07:33:28.580Z,3706.88
2018-05-29T07:34:28.499Z,3594.38
2018-05-29T07:35:28.421Z,3470.63
2018-05-29T07:36:28.366Z,3414.38
2018-05-29T07:37:28.279Z,3521.25
2018-05-29T07:38:28.175Z,3605.63
2018-05-29T07:39:28.098Z,3746.25
2018-05-29T07:40:28.012Z,3661.88
2018-05-29T07:41:27.962Z,3470.63
2018-05-29T07:42:27.848Z,3802.50
2018-05-29T07:43:27.767Z,3774.38
2018-05-29T07:44:27.691Z,3729.38
2018-05-29T07:45:27.607Z,3549.38
2018-05-29T07:46:27.555Z,3729.38
2018-05-29T07:47:27.443Z,3746.25
2018-05-29T07:48:27.359Z,3836.25
2018-05-29T07:49:27.283Z,3768.75
2018-05-29T07:50:27.201Z,3448.13
2018-05-29T07:51:27.124Z,3740.63
2018-05-29T07:52:27.070Z,4027.50
2018-05-29T07:53:26.960Z,3982.50
2018-05-29T07:54:26.877Z,3926.25
2018-05-29T07:55:26.798Z,3240.00
2018-05-29T07:56:26.717Z,3105.00
2018-05-29T07:57:26.757Z,4050.00
2018-05-29T07:58:26.558Z,4072.50
2018-05-29T07:59:26.480Z,3465.00
2018-05-29T08:00:26.403Z,3155.63
2018-05-29T08:01:26.314Z,3386.25
2018-05-29T08:02:26.262Z,4528.13
2018-05-29T08:03:26.151Z,3746.25
2018-05-29T08:04:26.161Z,3616.88
2018-05-29T08:05:25.990Z,3954.38
2018-05-29T08:06:25.916Z,4168.13
2018-05-29T08:07:25.861Z,3431.25
2018-05-29T08:08:25.750Z,3324.38
2018-05-29T08:09:25.670Z,3999.38
2018-05-29T08:10:25.590Z,4106.25
2018-05-29T08:11:25.605Z,3510.00
2018-05-29T08:12:25.476Z,3965.63
2018-05-29T08:13:25.350Z,4488.75
2018-05-29T08:14:25.270Z,4156.88
2018-05-29T08:15:25.190Z,4218.75
2018-05-29T08:16:25.110Z,4511.25
2018-05-29T08:17:25.058Z,4297.50
2018-05-29T08:18:25.044Z,4010.63
2018-05-29T08:19:24.869Z,3324.38
2018-05-29T08:20:24.790Z,3549.38
2018-05-29T08:21:24.708Z,4455.00
2018-05-29T08:22:24.662Z,3352.50
2018-05-29T08:23:24.563Z,3886.88
2018-05-29T08:24:24.469Z,4258.13
2018-05-29T08:25:24.485Z,4100.63
2018-05-29T08:26:24.311Z,3718.13
2018-05-29T08:27:24.260Z,3802.50
2018-05-29T08:28:24.150Z,4252.50
2018-05-29T08:29:24.068Z,4263.75
2018-05-29T08:30:23.991Z,4449.38
2018-05-29T08:31:23.909Z,3988.13
2018-05-29T08:32:23.951Z,3988.13
2018-05-29T08:33:23.749Z,3881.25
2018-05-29T08:34:23.671Z,4010.63
2018-05-29T08:35:23.590Z,4303.13
2018-05-29T08:36:23.508Z,4106.25
2018-05-29T08:37:23.465Z,4505.63
2018-05-29T08:38:23.348Z,4044.38
2018-05-29T08:39:23.324Z,3999.38
2018-05-29T08:40:23.190Z,4404.38
2018-05-29T08:41:23.117Z,4455.00
2018-05-29T08:42:23.062Z,4027.50
2018-05-29T08:43:22.952Z,3813.75
2018-05-29T08:44:22.871Z,4623.75
2018-05-29T08:45:22.789Z,4882.50
2018-05-29T08:46:22.715Z,4500.00
2018-05-29T08:47:22.663Z,4753.13
2018-05-29T08:48:22.549Z,4618.13
2018-05-29T08:49:22.474Z,5107.50
2018-05-29T08:50:22.392Z,4646.25
2018-05-29T08:51:22.315Z,3825.00
2018-05-29T08:52:22.236Z,4134.38
2018-05-29T08:53:22.189Z,4348.13
2018-05-29T08:54:22.069Z,4443.75
2018-05-29T08:55:21.996Z,4308.75
2018-05-29T08:56:21.913Z,4404.38
2018-05-29T08:57:21.841Z,4590.00
2018-05-29T08:58:21.786Z,4764.38
2018-05-29T08:59:21.676Z,4342.50
2018-05-29T09:00:21.595Z,4770.00
2018-05-29T09:01:21.518Z,4494.38
2018-05-29T09:02:21.437Z,4291.88
2018-05-29T09:03:21.398Z,4353.75
2018-05-29T09:04:21.328Z,4286.25
2018-05-29T09:05:21.201Z,4331.25
2018-05-29T09:06:21.125Z,4640.63
2018-05-29T09:07:21.044Z,4601.25
2018-05-29T09:08:20.992Z,4050.00
2018-05-29T09:09:20.882Z,3881.25
2018-05-29T09:10:20.806Z,5388.75
2018-05-29T09:11:20.726Z,5383.13
2018-05-29T09:12:20.649Z,3712.50
2018-05-29T09:13:20.598Z,4393.13
2018-05-29T09:14:20.493Z,4950.00
2018-05-29T09:15:20.415Z,4961.25
2018-05-29T09:16:20.332Z,4950.00
2018-05-29T09:17:20.254Z,5000.63
2018-05-29T09:18:20.204Z,3746.25
2018-05-29T09:19:20.103Z,3735.00
2018-05-29T09:20:20.026Z,4680.00
2018-05-29T09:21:19.939Z,5490.00
2018-05-29T09:22:19.863Z,5371.88
2018-05-29T09:23:19.812Z,4539.38
2018-05-29T09:24:19.707Z,4657.50
2018-05-29T09:25:19.624Z,4966.88
2018-05-29T09:26:19.545Z,5073.75
2018-05-29T09:27:19.469Z,5107.50
2018-05-29T09:28:19.423Z,4781.25
2018-05-29T09:29:19.313Z,4505.63
2018-05-29T09:30:19.234Z,4269.38
2018-05-29T09:31:19.155Z,5208.75
2018-05-29T09:32:19.089Z,4809.38
2018-05-29T09:33:19.028Z,4775.63
2018-05-29T09:34:18.919Z,4741.88
2018-05-29T09:35:18.840Z,4921.88
2018-05-29T09:36:18.760Z,4696.88
2018-05-29T09:37:18.687Z,4916.25
2018-05-29T09:38:18.636Z,5169.38
2018-05-29T09:39:18.528Z,4798.13
2018-05-29T09:40:18.466Z,4786.88
2018-05-29T09:41:18.372Z,4905.00
2018-05-29T09:42:18.292Z,4888.13
2018-05-29T09:43:18.248Z,4831.88
2018-05-29T09:44:18.140Z,4938.75
2018-05-29T09:45:18.059Z,4241.25
2018-05-29T09:46:17.981Z,3830.63
2018-05-29T09:47:17.902Z,4033.13
2018-05-29T09:48:17.877Z,5203.13
2018-05-29T09:49:17.744Z,5411.25
2018-05-29T09:50:17.699Z,5338.13
2018-05-29T09:51:17.591Z,4876.88
2018-05-29T09:52:17.514Z,4336.88
2018-05-29T09:53:17.439Z,4348.13
2018-05-29T09:54:17.391Z,4674.38
2018-05-29T09:55:17.281Z,4871.25
2018-05-29T09:56:17.201Z,4916.25
2018-05-29T09:57:17.125Z,4606.88
2018-05-29T09:58:17.051Z,4803.75
2018-05-29T09:59:17.002Z,4927.50
2018-05-29T10:00:16.890Z,4888.13
2018-05-29T10:01:16.814Z,4303.13
2018-05-29T10:02:16.734Z,4758.75
2018-05-29T10:03:16.660Z,5034.38
2018-05-29T10:04:16.613Z,4910.63
2018-05-29T10:05:16.504Z,4792.50
2018-05-29T10:06:16.426Z,4938.75
2018-05-29T10:07:16.380Z,5000.63
2018-05-29T10:08:16.268Z,4410.00
2018-05-29T10:09:16.224Z,3577.50
2018-05-29T10:10:16.110Z,3532.50
2018-05-29T10:11:16.056Z,4511.25
2018-05-29T10:12:15.956Z,5096.25
2018-05-29T10:13:15.930Z,4955.63
2018-05-29T10:14:15.831Z,4860.00
2018-05-29T10:15:15.723Z,5062.50
2018-05-29T10:16:15.647Z,5051.25
2018-05-29T10:17:15.569Z,4708.13
2018-05-29T10:18:15.491Z,4066.88
2018-05-29T10:19:15.475Z,4792.50
2018-05-29T10:20:15.335Z,5315.63
2018-05-29T10:21:15.255Z,5675.63
2018-05-29T10:22:15.193Z,4837.50
2018-05-29T10:23:15.099Z,4393.13
2018-05-29T10:24:15.054Z,4325.63
2018-05-29T10:25:14.947Z,4702.50
2018-05-29T10:26:14.867Z,5180.63
2018-05-29T10:27:14.790Z,4983.75
2018-05-29T10:28:14.712Z,5169.38
2018-05-29T10:29:14.662Z,4331.25
2018-05-29T10:30:14.558Z,4595.63
2018-05-29T10:31:14.480Z,4533.75
2018-05-29T10:32:14.401Z,4955.63
2018-05-29T10:33:14.321Z,5124.38
2018-05-29T10:34:14.318Z,4640.63
2018-05-29T10:35:14.181Z,5141.25
2018-05-29T10:36:14.088Z,4730.63
2018-05-29T10:37:14.011Z,4539.38
2018-05-29T10:38:13.933Z,4719.38
2018-05-29T10:39:13.887Z,4775.63
2018-05-29T10:40:13.781Z,4798.13
2018-05-29T10:41:13.700Z,4764.38
2018-05-29T10:42:13.625Z,4882.50
2018-05-29T10:43:13.545Z,4865.63
2018-05-29T10:44:13.495Z,4595.63
2018-05-29T10:45:13.479Z,4421.25
2018-05-29T10:46:13.311Z,4815.00
2018-05-29T10:47:13.242Z,4972.50
2018-05-29T10:48:13.155Z,4815.00
2018-05-29T10:49:13.113Z,4815.00
2018-05-29T10:50:13.001Z,4809.38
2018-05-29T10:51:12.927Z,4685.63
2018-05-29T10:52:12.940Z,4612.50
2018-05-29T10:53:12.769Z,4561.88
2018-05-29T10:54:12.720Z,4421.25
2018-05-29T10:55:12.611Z,4331.25
2018-05-29T10:56:12.534Z,4612.50
2018-05-29T10:57:12.460Z,4353.75
2018-05-29T10:58:12.382Z,4370.63
2018-05-29T10:59:12.448Z,4803.75
2018-05-29T11:00:12.254Z,4719.38
2018-05-29T11:01:12.147Z,4612.50
2018-05-29T11:02:12.065Z,4612.50
2018-05-29T11:03:11.991Z,4387.50
2018-05-29T11:04:11.915Z,4162.50
2018-05-29T11:05:11.868Z,5017.50
2018-05-29T11:06:11.848Z,4944.38
2018-05-29T11:07:11.683Z,4674.38
2018-05-29T11:08:11.599Z,4522.50
2018-05-29T11:09:11.524Z,4921.88
2018-05-29T11:10:11.479Z,5208.75
2018-05-29T11:11:11.368Z,5118.75
2018-05-29T11:12:11.290Z,1237.50
2018-05-29T11:13:11.308Z,4741.88
2018-05-29T11:14:11.140Z,4713.75
2018-05-29T11:15:11.092Z,4381.88
2018-05-29T11:16:10.983Z,4381.88
2018-05-29T11:17:10.905Z,4831.88
2018-05-29T11:18:10.830Z,4764.38
2018-05-29T11:19:10.750Z,1383.75
2018-05-29T11:20:10.848Z,4989.38
2018-05-29T11:21:10.596Z,5366.25
2018-05-29T11:22:10.517Z,4938.75
2018-05-29T11:23:10.440Z,4848.75
2018-05-29T11:24:10.364Z,4865.63
2018-05-29T11:25:10.325Z,5023.13
2018-05-29T11:26:10.205Z,5208.75
2018-05-29T11:27:10.226Z,5152.50
2018-05-29T11:28:10.054Z,4494.38
2018-05-29T11:29:09.974Z,4561.88
2018-05-29T11:30:09.934Z,4916.25
2018-05-29T11:31:09.880Z,4308.75
2018-05-29T11:32:09.747Z,4179.38
2018-05-29T11:33:09.667Z,4635.00
2018-05-29T11:34:09.700Z,4646.25
2018-05-29T11:35:09.550Z,4820.63
2018-05-29T11:36:09.436Z,4702.50
2018-05-29T11:37:09.375Z,1091.25
2018-05-29T11:38:09.281Z,1136.25
2018-05-29T11:39:09.206Z,4927.50
2018-05-29T11:40:09.155Z,4578.75
2018-05-29T11:41:09.146Z,4646.25
2018-05-29T11:42:08.972Z,4786.88
2018-05-29T11:43:08.897Z,4556.25
2018-05-29T11:44:08.817Z,4359.38
2018-05-29T11:45:08.777Z,4516.88
2018-05-29T11:46:08.671Z,1625.63
2018-05-29T11:47:08.586Z,4753.13
2018-05-29T11:48:08.601Z,1968.75
2018-05-29T11:49:08.488Z,1293.75
2018-05-29T11:50:08.379Z,1198.13
2018-05-29T11:51:08.275Z,1153.13
2018-05-29T11:52:08.199Z,4803.75
2018-05-29T11:53:08.118Z,3971.25
2018-05-29T11:54:08.041Z,2413.13
2018-05-29T11:55:07.995Z,4606.88
2018-05-29T11:56:07.884Z,4516.88
2018-05-29T11:57:07.811Z,4719.38
2018-05-29T11:58:07.728Z,4449.38
2018-05-29T11:59:07.651Z,4168.13
2018-05-29T12:00:07.601Z,3262.50
2018-05-29T12:01:07.494Z,1659.38
2018-05-29T12:02:07.415Z,821.25
2018-05-29T12:03:07.337Z,1198.13
2018-05-29T12:04:07.260Z,725.63
2018-05-29T12:05:07.180Z,646.88
2018-05-29T12:06:07.138Z,635.63
2018-05-29T12:07:07.023Z,691.88
2018-05-29T12:08:06.947Z,720.00
2018-05-29T12:09:06.866Z,770.63
2018-05-29T12:10:06.793Z,950.63
2018-05-29T12:11:06.743Z,1395.00
2018-05-29T12:12:06.633Z,4224.38
2018-05-29T12:13:06.553Z,4123.13
2018-05-29T12:14:06.471Z,995.63
2018-05-29T12:15:06.396Z,4179.38
2018-05-29T12:16:06.344Z,4460.63
2018-05-29T12:17:06.231Z,4505.63
2018-05-29T12:18:06.151Z,4815.00
2018-05-29T12:19:06.130Z,781.88
2018-05-29T12:20:05.993Z,675.00
2018-05-29T12:21:05.961Z,1035.00
2018-05-29T12:22:05.833Z,781.88
2018-05-29T12:23:05.755Z,798.75
2018-05-29T12:24:05.676Z,4528.13
2018-05-29T12:25:05.600Z,4578.75
2018-05-29T12:26:05.546Z,4663.13
2018-05-29T12:27:05.440Z,5045.63
2018-05-29T12:28:05.358Z,4269.38
2018-05-29T12:29:05.278Z,4488.75